Time;durP1;ratioP1;P1;durP2;ratioP2;P2;SDS_P1;SDS_P2;PMS_P1;PMS_P2;Temp;Humidity;BMP_temperature;BMP_pressure;BME280_temperature;BME280_humidity;BME280_pressure;Samples;Min_cycle;Max_cycle;Signal;HPM_P1;HPM_P2
2023/03/25 00:01:02;;;;;;;1.23;0.70;;;12.20;99.90;;;;;;7385522;19;20243;-74
2023/03/25 00:03:36;;;;;;;1.87;0.70;;;11.80;99.90;;;;;;7387161;19;20148;-73
2023/03/25 00:06:05;;;;;;;0.60;0.47;;;11.80;99.90;;;;;;7385631;19;20501;-74
2023/03/25 00:08:31;;;;;;;1.57;0.63;;;11.30;99.90;;;;;;7385627;19;20261;-74
2023/03/25 00:10:59;;;;;;;1.10;0.70;;;11.10;99.90;;;;;;7386286;19;20154;-74
2023/03/25 00:13:25;;;;;;;1.03;0.50;;;11.50;99.90;;;;;;7384993;19;20474;-74
2023/03/25 00:15:52;;;;;;;0.85;0.65;;;11.20;99.90;;;;;;7385193;19;20131;-74
2023/03/25 00:18:20;;;;;;;1.13;0.57;;;11.60;99.90;;;;;;7387376;19;20147;-74
2023/03/25 00:20:49;;;;;;;1.47;0.67;;;11.50;99.90;;;;;;7385514;19;20162;-74
2023/03/25 00:23:20;;;;;;;0.43;0.43;;;11.40;99.90;;;;;;7383406;19;20139;-73
2023/03/25 00:25:47;;;;;;;3.03;0.57;;;11.60;99.90;;;;;;7382391;19;20197;-75
2023/03/25 00:28:14;;;;;;;0.60;0.60;;;11.70;99.90;;;;;;7384707;19;20139;-73
2023/03/25 00:30:42;;;;;;;0.57;0.40;;;11.80;99.90;;;;;;7387161;19;20596;-73
2023/03/25 00:33:12;;;;;;;2.57;0.57;;;11.90;99.90;;;;;;7386435;19;20195;-74
2023/03/25 00:35:51;;;;;;;1.03;0.70;;;11.80;99.90;;;;;;7386575;19;20518;-73
2023/03/25 00:38:17;;;;;;;2.77;0.47;;;11.60;99.90;;;;;;7385633;19;20218;-74
2023/03/25 00:40:45;;;;;;;1.03;0.50;;;11.90;99.90;;;;;;7385050;19;20162;-73
2023/03/25 00:43:11;;;;;;;1.27;0.70;;;11.90;99.90;;;;;;7384637;19;20146;-73
2023/03/25 00:45:37;;;;;;;1.87;0.50;;;12.00;99.90;;;;;;7385328;19;20146;-73
2023/03/25 00:48:03;;;;;;;0.77;0.40;;;12.10;99.90;;;;;;7387215;19;20135;-74
2023/03/25 00:50:28;;;;;;;1.57;0.53;;;12.00;99.90;;;;;;7391710;19;20174;-73
2023/03/25 00:52:54;;;;;;;0.80;0.53;;;12.00;99.90;;;;;;7391610;19;20161;-74
2023/03/25 00:55:20;;;;;;;1.13;0.50;;;12.00;99.90;;;;;;7392019;19;20155;-73
2023/03/25 00:57:46;;;;;;;1.00;0.60;;;12.00;99.90;;;;;;7391415;19;20150;-74
2023/03/25 01:00:15;;;;;;;1.27;0.50;;;12.00;99.90;;;;;;7392524;19;20144;-74
2023/03/25 01:02:42;;;;;;;1.23;0.50;;;11.90;99.90;;;;;;7392522;19;20509;-73
2023/03/25 01:05:10;;;;;;;0.77;0.50;;;11.90;99.90;;;;;;7391814;19;20250;-73
2023/03/25 01:07:40;;;;;;;0.40;0.40;;;11.90;99.90;;;;;;7391420;19;20147;-72
2023/03/25 01:10:06;;;;;;;2.30;0.70;;;11.90;99.90;;;;;;7392098;19;20630;-74
2023/03/25 01:12:32;;;;;;;1.63;0.50;;;11.90;99.90;;;;;;7391156;19;20209;-74
2023/03/25 01:14:58;;;;;;;1.00;0.60;;;11.70;99.90;;;;;;7390918;19;20167;-74
2023/03/25 01:17:24;;;;;;;2.53;0.70;;;11.80;99.90;;;;;;7391272;19;20161;-73
2023/03/25 01:19:50;;;;;;;2.13;0.80;;;11.70;99.90;;;;;;7389957;19;20142;-74
2023/03/25 01:22:15;;;;;;;2.23;0.80;;;11.40;99.90;;;;;;7392978;19;20131;-74
2023/03/25 01:24:41;;;;;;;1.53;0.70;;;11.50;99.90;;;;;;7388016;19;20159;-72
2023/03/25 01:27:07;;;;;;;0.67;0.53;;;11.60;99.90;;;;;;7390146;19;20155;-73
2023/03/25 01:29:33;;;;;;;2.67;0.70;;;11.50;99.90;;;;;;7390961;19;20160;-72
2023/03/25 01:31:59;;;;;;;1.57;0.70;;;11.40;99.90;;;;;;7391946;19;20152;-73
2023/03/25 01:34:24;;;;;;;0.50;0.40;;;11.50;99.90;;;;;;7390530;19;20161;-73
2023/03/25 01:36:54;;;;;;;2.10;0.70;;;11.50;99.90;;;;;;7390618;19;20153;-74
2023/03/25 01:39:20;;;;;;;2.97;0.70;;;11.50;99.90;;;;;;7391661;19;20243;-74
2023/03/25 01:41:49;;;;;;;2.53;0.60;;;11.60;99.90;;;;;;7390500;19;20178;-73
2023/03/25 01:44:21;;;;;;;1.33;0.57;;;11.70;99.90;;;;;;7391385;19;20274;-74
2023/03/25 01:46:48;;;;;;;3.50;0.60;;;11.60;99.90;;;;;;7388295;19;20135;-74
2023/03/25 01:49:22;;;;;;;2.33;0.83;;;11.70;99.90;;;;;;7389540;19;20832;-73
2023/03/25 01:51:53;;;;;;;2.20;0.73;;;11.80;99.90;;;;;;7389505;19;20170;-74
2023/03/25 01:54:20;;;;;;;4.13;0.80;;;11.90;99.90;;;;;;7390461;19;20210;-74
2023/03/25 01:56:48;;;;;;;1.13;0.70;;;11.60;99.90;;;;;;7390046;19;20154;-73
2023/03/25 01:59:17;;;;;;;1.47;0.50;;;11.70;99.90;;;;;;7390511;19;20259;-74
2023/03/25 02:01:45;;;;;;;1.53;0.70;;;11.40;99.90;;;;;;7389481;19;20145;-74
2023/03/25 02:04:13;;;;;;;2.20;0.60;;;11.30;99.90;;;;;;7388651;19;20178;-74
2023/03/25 02:06:43;;;;;;;3.23;0.70;;;11.50;99.90;;;;;;7388022;19;20146;-73
2023/03/25 02:09:12;;;;;;;1.23;0.70;;;11.50;99.90;;;;;;7391737;19;20143;-73
2023/03/25 02:11:39;;;;;;;2.90;0.67;;;11.40;99.90;;;;;;7391735;19;20146;-73
2023/03/25 02:14:13;;;;;;;1.23;0.60;;;11.40;99.90;;;;;;7388042;19;20146;-74
2023/03/25 02:16:48;;;;;;;3.60;0.60;;;11.60;99.90;;;;;;7389147;19;20147;-73
2023/03/25 02:19:34;;;;;;;0.73;0.60;;;11.70;99.90;;;;;;7388642;19;20150;-74
2023/03/25 02:22:36;;;;;;;3.87;0.70;;;11.70;99.90;;;;;;7388510;19;20554;-74
2023/03/25 02:25:28;;;;;;;1.33;0.80;;;11.70;99.90;;;;;;7389158;19;20138;-74
2023/03/25 02:28:12;;;;;;;1.37;0.57;;;11.50;99.90;;;;;;7379242;19;20133;-74
2023/03/25 02:30:50;;;;;;;5.85;0.80;;;11.60;99.90;;;;;;7387730;19;20138;-73
2023/03/25 02:33:25;;;;;;;2.07;0.57;;;11.60;99.90;;;;;;7387703;19;20150;-74
2023/03/25 02:36:29;;;;;;;3.40;0.80;;;11.10;99.90;;;;;;7390073;19;20599;-74
2023/03/25 02:39:27;;;;;;;1.13;0.50;;;11.30;99.90;;;;;;7389982;19;20138;-73
2023/03/25 02:42:21;;;;;;;2.55;0.63;;;11.20;99.90;;;;;;7388178;19;20151;-73
2023/03/25 02:44:55;;;;;;;3.63;0.70;;;11.00;99.90;;;;;;7389596;19;20611;-73
2023/03/25 02:47:26;;;;;;;3.13;0.60;;;11.00;99.90;;;;;;7389553;19;20592;-73
2023/03/25 02:50:08;;;;;;;0.90;0.60;;;11.00;99.90;;;;;;7386717;19;20245;-73
2023/03/25 02:52:38;;;;;;;1.23;0.53;;;11.20;99.90;;;;;;7387831;19;20198;-74
2023/03/25 02:55:09;;;;;;;0.70;0.50;;;11.20;99.90;;;;;;7383745;19;20127;-72
2023/03/25 02:57:39;;;;;;;0.93;0.50;;;11.00;99.90;;;;;;7390561;19;20127;-74
2023/03/25 03:00:14;;;;;;;0.40;0.40;;;11.20;99.90;;;;;;7391036;19;20150;-73
2023/03/25 03:02:58;;;;;;;2.57;0.50;;;11.30;99.90;;;;;;7385142;19;20521;-74
2023/03/25 03:05:34;;;;;;;1.93;0.77;;;11.40;99.90;;;;;;7386361;19;20154;-74
2023/03/25 03:08:25;;;;;;;1.30;0.50;;;11.40;99.90;;;;;;7386783;19;20182;-74
2023/03/25 03:11:02;;;;;;;1.67;0.50;;;11.40;99.90;;;;;;7387714;19;20139;-73
2023/03/25 03:13:50;;;;;;;0.97;0.43;;;11.30;99.90;;;;;;7387382;19;20509;-74
2023/03/25 03:16:36;;;;;;;0.93;0.50;;;11.30;99.90;;;;;;7386754;19;21890;-74
2023/03/25 03:19:26;;;;;;;1.43;0.40;;;11.40;99.90;;;;;;7388568;19;20599;-74
2023/03/25 03:22:01;;;;;;;0.60;0.40;;;11.50;99.90;;;;;;7388143;19;20134;-74
2023/03/25 03:24:37;;;;;;;3.57;0.50;;;11.40;99.90;;;;;;7385234;19;20233;-73
2023/03/25 03:27:02;;;;;;;0.70;0.50;;;11.30;99.90;;;;;;7385361;19;20469;-74
2023/03/25 03:29:35;;;;;;;1.43;0.50;;;11.10;99.90;;;;;;7386476;19;20162;-73
2023/03/25 03:32:06;;;;;;;2.23;0.60;;;11.30;99.90;;;;;;7385526;19;20151;-74
2023/03/25 03:34:47;;;;;;;4.00;0.80;;;11.40;99.90;;;;;;7387229;19;20147;-74
2023/03/25 03:37:17;;;;;;;1.20;0.70;;;11.40;99.90;;;;;;7387423;19;20654;-73
2023/03/25 03:39:46;;;;;;;2.07;0.73;;;11.30;99.90;;;;;;7385140;19;20130;-73
2023/03/25 03:42:54;;;;;;;1.30;0.60;;;11.30;99.90;;;;;;7388553;19;20141;-72
2023/03/25 03:45:32;;;;;;;1.80;0.53;;;11.30;99.90;;;;;;7383813;19;20153;-74
2023/03/25 03:48:01;;;;;;;2.97;0.80;;;11.10;99.90;;;;;;7386948;19;20143;-73
2023/03/25 03:50:31;;;;;;;1.27;0.60;;;11.00;99.90;;;;;;7383911;19;20139;-73
2023/03/25 03:53:19;;;;;;;1.80;0.60;;;11.00;99.90;;;;;;7387677;19;20131;-73
2023/03/25 03:56:07;;;;;;;1.00;0.70;;;11.00;99.90;;;;;;7387294;19;20155;-73
2023/03/25 03:58:41;;;;;;;0.77;0.40;;;10.90;99.90;;;;;;7387353;19;20253;-73
2023/03/25 04:01:13;;;;;;;2.88;0.50;;;10.80;99.90;;;;;;7386484;19;20138;-73
2023/03/25 04:03:45;;;;;;;1.60;0.50;;;10.90;99.90;;;;;;7385906;19;20161;-73
2023/03/25 04:06:37;;;;;;;0.30;0.30;;;10.50;99.90;;;;;;7384277;19;20150;-73
2023/03/25 04:09:32;;;;;;;1.27;0.40;;;10.40;99.90;;;;;;7385349;19;20477;-73
2023/03/25 04:12:13;;;;;;;0.87;0.60;;;10.60;99.90;;;;;;7385986;19;20150;-72
2023/03/25 04:14:39;;;;;;;0.80;0.47;;;10.90;99.90;;;;;;7386040;19;20247;-73
2023/03/25 04:17:05;;;;;;;0.30;0.30;;;10.70;99.90;;;;;;7385676;19;20139;-73
2023/03/25 04:19:34;;;;;;;0.60;0.30;;;10.80;99.90;;;;;;7385815;19;20134;-74
2023/03/25 04:22:01;;;;;;;1.67;0.60;;;11.00;99.90;;;;;;7383054;19;20141;-73
2023/03/25 04:24:30;;;;;;;1.13;0.50;;;10.90;99.90;;;;;;7389443;19;20623;-74
2023/03/25 04:26:58;;;;;;;1.33;0.50;;;10.70;99.90;;;;;;7388744;19;20171;-73
2023/03/25 04:29:25;;;;;;;0.87;0.40;;;10.70;99.90;;;;;;7388075;19;20166;-74
2023/03/25 04:31:54;;;;;;;0.43;0.33;;;10.70;99.90;;;;;;7391142;19;20157;-74
2023/03/25 04:34:21;;;;;;;2.43;0.40;;;10.80;99.90;;;;;;7390449;19;20135;-73
2023/03/25 04:36:49;;;;;;;1.07;0.40;;;10.80;99.90;;;;;;7391245;19;20168;-74
2023/03/25 04:39:21;;;;;;;0.63;0.43;;;10.90;99.90;;;;;;7386822;19;20139;-73
2023/03/25 04:41:48;;;;;;;0.93;0.50;;;10.90;99.90;;;;;;7388552;19;20167;-73
2023/03/25 04:44:15;;;;;;;0.90;0.60;;;10.90;99.90;;;;;;7392853;19;20147;-73
2023/03/25 04:46:42;;;;;;;1.23;0.57;;;10.90;99.90;;;;;;7392493;19;20135;-74
2023/03/25 04:49:20;;;;;;;2.10;0.70;;;10.90;99.90;;;;;;7392035;19;20538;-75
2023/03/25 04:51:50;;;;;;;1.63;0.40;;;10.90;99.90;;;;;;7392914;19;20143;-73
2023/03/25 04:54:20;;;;;;;0.80;0.50;;;11.00;99.90;;;;;;7390760;19;20158;-74
2023/03/25 04:56:48;;;;;;;1.27;0.70;;;10.80;99.90;;;;;;7392097;19;20571;-73
2023/03/25 04:59:14;;;;;;;1.13;0.50;;;10.60;99.90;;;;;;7393094;19;20141;-74
2023/03/25 05:01:41;;;;;;;1.93;0.47;;;10.70;99.90;;;;;;7391845;19;20139;-74
2023/03/25 05:04:11;;;;;;;2.80;0.57;;;10.70;99.90;;;;;;7389878;19;20233;-72
2023/03/25 05:06:46;;;;;;;1.40;0.50;;;10.70;99.90;;;;;;7390978;19;20135;-73
2023/03/25 05:09:16;;;;;;;1.90;0.70;;;10.80;99.90;;;;;;7390262;19;20218;-73
2023/03/25 05:11:42;;;;;;;2.90;0.87;;;10.80;99.90;;;;;;7391241;19;20158;-75
2023/03/25 05:14:09;;;;;;;4.23;0.73;;;10.80;99.90;;;;;;7389876;19;20145;-75
2023/03/25 05:16:35;;;;;;;1.40;0.80;;;10.90;99.90;;;;;;7389398;19;20155;-74
2023/03/25 05:19:02;;;;;;;4.20;0.90;;;10.80;99.90;;;;;;7390736;19;20155;-75
2023/03/25 05:21:30;;;;;;;0.87;0.60;;;10.70;99.90;;;;;;7390464;19;20149;-75
2023/03/25 05:23:57;;;;;;;0.90;0.50;;;10.70;99.90;;;;;;7390720;19;20171;-74
2023/03/25 05:26:24;;;;;;;2.20;0.70;;;10.70;99.90;;;;;;7388573;19;20154;-73
2023/03/25 05:28:50;;;;;;;0.87;0.53;;;10.60;99.90;;;;;;7391743;19;20146;-75
2023/03/25 05:31:17;;;;;;;0.70;0.60;;;10.60;99.90;;;;;;7390759;19;20173;-75
2023/03/25 05:33:42;;;;;;;1.67;0.53;;;10.50;99.90;;;;;;7390933;19;20135;-74
2023/03/25 05:36:12;;;;;;;1.20;0.70;;;10.40;99.90;;;;;;7374618;19;20155;-74
2023/03/25 05:38:58;;;;;;;0.60;0.43;;;10.50;99.90;;;;;;7355286;19;20151;-75
2023/03/25 05:41:44;;;;;;;0.70;0.57;;;10.60;99.90;;;;;;7343546;19;20145;-75
2023/03/25 05:44:30;;;;;;;2.67;0.73;;;10.50;99.90;;;;;;7355055;19;20905;-73
2023/03/25 05:47:24;;;;;;;3.40;0.80;;;10.70;99.90;;;;;;7354392;19;20146;-74
2023/03/25 05:50:10;;;;;;;4.53;1.20;;;10.80;99.90;;;;;;7350579;19;20495;-76
2023/03/25 05:52:58;;;;;;;4.27;0.80;;;11.10;99.90;;;;;;7350571;19;20134;-74
2023/03/25 05:55:46;;;;;;;4.23;0.70;;;11.10;99.90;;;;;;7356065;19;20157;-74
2023/03/25 05:58:32;;;;;;;3.37;0.80;;;11.20;99.90;;;;;;7352978;19;20132;-73
2023/03/25 06:01:20;;;;;;;2.83;0.80;;;11.50;99.90;;;;;;7346361;19;20138;-72
